<?xml version='1.0' encoding='UTF-8'?>
<gpx xmlns="http://www.topografix.com/GPX/1/1" creator="www.balnam.be" version="1.1" xmlns:xsi="http://www.w3.org/2001/XMLSchema-instance" xsi:schemaLocation="http://www.topografix.com/GPX/1/1 http://www.topografix.com/GPX/1/1/gpx.xsd">
<trk>
<name>nfnst1</name>
<cmt>r</cmt>
<desc>Saint-Aubin Chemin n°1 </desc>
<link href="https://chemins.be/saintaubin/chemin/1"/><trkseg>
<trkpt lat="50.248909" lon="4.581583"><time>2026-05-03T01:35:20Z</time></trkpt>
<trkpt lat="50.249204" lon="4.582272"><time>2026-05-03T01:45:20Z</time></trkpt>
<trkpt lat="50.249678" lon="4.584068"><time>2026-05-03T01:55:20Z</time></trkpt>
<trkpt lat="50.249918" lon="4.585500"><time>2026-05-03T02:05:20Z</time></trkpt>
<trkpt lat="50.249764" lon="4.585751"><time>2026-05-03T02:15:20Z</time></trkpt>
<trkpt lat="50.249997" lon="4.586355"><time>2026-05-03T02:25:20Z</time></trkpt>
<trkpt lat="50.249816" lon="4.586677"><time>2026-05-03T02:35:20Z</time></trkpt>
</trkseg></trk>
<trk>
<name>nfnst1</name>
<cmt>v</cmt>
<desc>Saint-Aubin Chemin n°1 </desc>
<link href="https://chemins.be/saintaubin/chemin/1"/><trkseg>
<trkpt lat="50.249816" lon="4.586677"><time>2026-05-03T02:35:20Z</time></trkpt>
<trkpt lat="50.249838" lon="4.589608"><time>2026-05-03T02:45:20Z</time></trkpt>
<trkpt lat="50.249320" lon="4.592255"><time>2026-05-03T02:55:20Z</time></trkpt>
</trkseg>
</trk>
<trk>
<name>nfnst10</name>
<cmt>v</cmt>
<desc>Saint-Aubin Chemin n°10 </desc>
<link href="https://chemins.be/saintaubin/chemin/10"/><trkseg>
<trkpt lat="50.244991" lon="4.559680"><time>2026-05-03T01:35:20Z</time></trkpt>
<trkpt lat="50.244848" lon="4.559596"><time>2026-05-03T01:45:20Z</time></trkpt>
<trkpt lat="50.244499" lon="4.558431"><time>2026-05-03T01:55:20Z</time></trkpt>
<trkpt lat="50.243998" lon="4.556845"><time>2026-05-03T02:05:20Z</time></trkpt>
<trkpt lat="50.242942" lon="4.553812"><time>2026-05-03T02:15:20Z</time></trkpt>
<trkpt lat="50.242389" lon="4.550950"><time>2026-05-03T02:25:20Z</time></trkpt>
<trkpt lat="50.241782" lon="4.548144"><time>2026-05-03T02:35:20Z</time></trkpt>
</trkseg>
</trk>
<trk>
<name>nfnst11</name>
<cmt>s</cmt>
<desc>Saint-Aubin Chemin n°11 Rue du Pont du Sansoir</desc>
<link href="https://chemins.be/saintaubin/chemin/11"/><trkseg>
<trkpt lat="50.254514" lon="4.598492"><time>2026-05-03T01:35:20Z</time></trkpt>
<trkpt lat="50.255063" lon="4.598004"><time>2026-05-03T01:45:20Z</time></trkpt>
<trkpt lat="50.255363" lon="4.596154"><time>2026-05-03T01:55:20Z</time></trkpt>
</trkseg></trk>
<trk>
<name>nfnst11</name>
<cmt>v</cmt>
<desc>Saint-Aubin Chemin n°11 Rue du Pont du Sansoir</desc>
<link href="https://chemins.be/saintaubin/chemin/11"/><trkseg>
<trkpt lat="50.255363" lon="4.596154"><time>2026-05-03T01:55:20Z</time></trkpt>
<trkpt lat="50.255437" lon="4.595285"><time>2026-05-03T02:05:20Z</time></trkpt>
</trkseg></trk>
<trk>
<name>nfnst11</name>
<cmt>s</cmt>
<desc>Saint-Aubin Chemin n°11 Rue du Pont du Sansoir</desc>
<link href="https://chemins.be/saintaubin/chemin/11"/><trkseg>
<trkpt lat="50.255437" lon="4.595285"><time>2026-05-03T02:05:20Z</time></trkpt>
<trkpt lat="50.256454" lon="4.594939"><time>2026-05-03T02:15:20Z</time></trkpt>
<trkpt lat="50.258268" lon="4.591302"><time>2026-05-03T02:25:20Z</time></trkpt>
<trkpt lat="50.258333" lon="4.590236"><time>2026-05-03T02:35:20Z</time></trkpt>
<trkpt lat="50.258567" lon="4.589718"><time>2026-05-03T02:45:20Z</time></trkpt>
<trkpt lat="50.259254" lon="4.588165"><time>2026-05-03T02:55:20Z</time></trkpt>
<trkpt lat="50.260424" lon="4.587329"><time>2026-05-03T03:05:20Z</time></trkpt>
<trkpt lat="50.261858" lon="4.585007"><time>2026-05-03T03:15:20Z</time></trkpt>
<trkpt lat="50.261778" lon="4.584348"><time>2026-05-03T03:25:20Z</time></trkpt>
<trkpt lat="50.263748" lon="4.579111"><time>2026-05-03T03:35:20Z</time></trkpt>
<trkpt lat="50.264399" lon="4.577164"><time>2026-05-03T03:45:20Z</time></trkpt>
<trkpt lat="50.265821" lon="4.575908"><time>2026-05-03T03:55:20Z</time></trkpt>
</trkseg></trk>
<trk>
<name>nfnst11</name>
<cmt>v</cmt>
<desc>Saint-Aubin Chemin n°11 Rue du Pont du Sansoir</desc>
<link href="https://chemins.be/saintaubin/chemin/11"/><trkseg>
<trkpt lat="50.265821" lon="4.575908"><time>2026-05-03T03:55:20Z</time></trkpt>
<trkpt lat="50.266002" lon="4.575713"><time>2026-05-03T04:05:20Z</time></trkpt>
<trkpt lat="50.265730" lon="4.571462"><time>2026-05-03T04:15:20Z</time></trkpt>
</trkseg>
</trk>
<trk>
<name>nfnst12</name>
<cmt>r</cmt>
<desc>Saint-Aubin Chemin n°12 Rue Saint-Fiacre</desc>
<link href="https://chemins.be/saintaubin/chemin/12"/><trkseg>
<trkpt lat="50.248181" lon="4.576462"><time>2026-05-03T01:35:20Z</time></trkpt>
<trkpt lat="50.248398" lon="4.576029"><time>2026-05-03T01:45:20Z</time></trkpt>
<trkpt lat="50.248614" lon="4.575455"><time>2026-05-03T01:55:20Z</time></trkpt>
<trkpt lat="50.248615" lon="4.575006"><time>2026-05-03T02:05:20Z</time></trkpt>
<trkpt lat="50.247979" lon="4.574064"><time>2026-05-03T02:15:20Z</time></trkpt>
<trkpt lat="50.247774" lon="4.572857"><time>2026-05-03T02:25:20Z</time></trkpt>
<trkpt lat="50.247213" lon="4.569700"><time>2026-05-03T02:35:20Z</time></trkpt>
<trkpt lat="50.246041" lon="4.566204"><time>2026-05-03T02:45:20Z</time></trkpt>
<trkpt lat="50.245281" lon="4.564210"><time>2026-05-03T02:55:20Z</time></trkpt>
</trkseg>
</trk>
<trk>
<name>nfnst13</name>
<cmt>r</cmt>
<desc>Saint-Aubin Chemin n°13 Rue Paul Costey</desc>
<link href="https://chemins.be/saintaubin/chemin/13"/><trkseg>
<trkpt lat="50.247783" lon="4.572605"><time>2026-05-03T01:35:20Z</time></trkpt>
<trkpt lat="50.247968" lon="4.569605"><time>2026-05-03T01:45:20Z</time></trkpt>
<trkpt lat="50.248029" lon="4.565595"><time>2026-05-03T01:55:20Z</time></trkpt>
<trkpt lat="50.247830" lon="4.563902"><time>2026-05-03T02:05:20Z</time></trkpt>
</trkseg>
</trk>
<trk>
<name>nfnst14</name>
<cmt>v</cmt>
<desc>Saint-Aubin Chemin n°14 Chemin n°14</desc>
<link href="https://chemins.be/saintaubin/chemin/14"/><trkseg>
<trkpt lat="50.257815" lon="4.573854"><time>2026-05-03T01:35:20Z</time></trkpt>
<trkpt lat="50.257700" lon="4.572395"><time>2026-05-03T01:45:20Z</time></trkpt>
<trkpt lat="50.256334" lon="4.567018"><time>2026-05-03T01:55:20Z</time></trkpt>
<trkpt lat="50.256013" lon="4.565236"><time>2026-05-03T02:05:20Z</time></trkpt>
<trkpt lat="50.256001" lon="4.561161"><time>2026-05-03T02:15:20Z</time></trkpt>
</trkseg></trk>
<trk>
<name>nfnst14</name>
<cmt>b</cmt>
<desc>Saint-Aubin Chemin n°14 Chemin n°14</desc>
<link href="https://chemins.be/saintaubin/chemin/14"/><trkseg>
<trkpt lat="50.256001" lon="4.561161"><time>2026-05-03T02:15:20Z</time></trkpt>
<trkpt lat="50.256491" lon="4.559124"><time>2026-05-03T02:25:20Z</time></trkpt>
<trkpt lat="50.257257" lon="4.558005"><time>2026-05-03T02:35:20Z</time></trkpt>
<trkpt lat="50.257357" lon="4.557430"><time>2026-05-03T02:45:20Z</time></trkpt>
<trkpt lat="50.256623" lon="4.555282"><time>2026-05-03T02:55:20Z</time></trkpt>
<trkpt lat="50.256849" lon="4.554497"><time>2026-05-03T03:05:20Z</time></trkpt>
<trkpt lat="50.257310" lon="4.553476"><time>2026-05-03T03:15:20Z</time></trkpt>
<trkpt lat="50.257193" lon="4.552970"><time>2026-05-03T03:25:20Z</time></trkpt>
</trkseg></trk>
<trk>
<name>nfnst14</name>
<cmt>s</cmt>
<desc>Saint-Aubin Chemin n°14 Chemin n°14</desc>
<link href="https://chemins.be/saintaubin/chemin/14"/><trkseg>
<trkpt lat="50.257193" lon="4.552970"><time>2026-05-03T03:25:20Z</time></trkpt>
<trkpt lat="50.257219" lon="4.548455"><time>2026-05-03T03:35:20Z</time></trkpt>
<trkpt lat="50.256888" lon="4.547318"><time>2026-05-03T03:45:20Z</time></trkpt>
<trkpt lat="50.257180" lon="4.544514"><time>2026-05-03T03:55:20Z</time></trkpt>
<trkpt lat="50.256615" lon="4.537192"><time>2026-05-03T04:05:20Z</time></trkpt>
<trkpt lat="50.256787" lon="4.536828"><time>2026-05-03T04:15:20Z</time></trkpt>
<trkpt lat="50.256950" lon="4.535720"><time>2026-05-03T04:25:20Z</time></trkpt>
<trkpt lat="50.256944" lon="4.533491"><time>2026-05-03T04:35:20Z</time></trkpt>
<trkpt lat="50.256676" lon="4.532676"><time>2026-05-03T04:45:20Z</time></trkpt>
</trkseg>
</trk>
<trk>
<name>nfnst15</name>
<cmt>r</cmt>
<desc>Saint-Aubin Chemin n°15 Rue Ancienne Verrerie</desc>
<link href="https://chemins.be/saintaubin/chemin/15"/><trkseg>
<trkpt lat="50.261827" lon="4.533157"><time>2026-05-03T01:35:20Z</time></trkpt>
<trkpt lat="50.259111" lon="4.533414"><time>2026-05-03T01:45:20Z</time></trkpt>
<trkpt lat="50.257593" lon="4.532652"><time>2026-05-03T01:55:20Z</time></trkpt>
<trkpt lat="50.256460" lon="4.532900"><time>2026-05-03T02:05:20Z</time></trkpt>
<trkpt lat="50.253808" lon="4.532751"><time>2026-05-03T02:15:20Z</time></trkpt>
<trkpt lat="50.252603" lon="4.532466"><time>2026-05-03T02:25:20Z</time></trkpt>
</trkseg></trk>
<trk>
<name>nfnst15</name>
<cmt>d</cmt>
<desc>Saint-Aubin Chemin n°15 Rue Ancienne Verrerie</desc>
<link href="https://chemins.be/saintaubin/chemin/15"/><trkseg>
<trkpt lat="50.252603" lon="4.532466"><time>2026-05-03T02:25:20Z</time></trkpt>
<trkpt lat="50.252118" lon="4.532534"><time>2026-05-03T02:35:20Z</time></trkpt>
<trkpt lat="50.251606" lon="4.532266"><time>2026-05-03T02:45:20Z</time></trkpt>
</trkseg>
</trk>
<trk>
<name>nfnst16</name>
<cmt>v</cmt>
<desc>Saint-Aubin Chemin n°16 Rue Saint-Antoine</desc>
<link href="https://chemins.be/saintaubin/chemin/16"/><trkseg>
<trkpt lat="50.248555" lon="4.563102"><time>2026-05-03T01:35:20Z</time></trkpt>
<trkpt lat="50.248468" lon="4.561559"><time>2026-05-03T01:45:20Z</time></trkpt>
<trkpt lat="50.248658" lon="4.560551"><time>2026-05-03T01:55:20Z</time></trkpt>
<trkpt lat="50.248947" lon="4.559570"><time>2026-05-03T02:05:20Z</time></trkpt>
<trkpt lat="50.250666" lon="4.558876"><time>2026-05-03T02:15:20Z</time></trkpt>
<trkpt lat="50.251190" lon="4.557238"><time>2026-05-03T02:25:20Z</time></trkpt>
<trkpt lat="50.250417" lon="4.551472"><time>2026-05-03T02:35:20Z</time></trkpt>
<trkpt lat="50.250411" lon="4.549270"><time>2026-05-03T02:45:20Z</time></trkpt>
<trkpt lat="50.249998" lon="4.548960"><time>2026-05-03T02:55:20Z</time></trkpt>
<trkpt lat="50.249027" lon="4.549209"><time>2026-05-03T03:05:20Z</time></trkpt>
<trkpt lat="50.247615" lon="4.549540"><time>2026-05-03T03:15:20Z</time></trkpt>
</trkseg>
</trk>
<trk>
<name>nfnst17</name>
<cmt>v</cmt>
<desc>Saint-Aubin Chemin n°17 </desc>
<link href="https://chemins.be/saintaubin/chemin/17"/><trkseg>
<trkpt lat="50.245367" lon="4.561098"><time>2026-05-03T01:35:20Z</time></trkpt>
<trkpt lat="50.246176" lon="4.560793"><time>2026-05-03T01:45:20Z</time></trkpt>
<trkpt lat="50.247021" lon="4.560824"><time>2026-05-03T01:55:20Z</time></trkpt>
<trkpt lat="50.247225" lon="4.560620"><time>2026-05-03T02:05:20Z</time></trkpt>
<trkpt lat="50.246460" lon="4.557766"><time>2026-05-03T02:15:20Z</time></trkpt>
<trkpt lat="50.246452" lon="4.556994"><time>2026-05-03T02:25:20Z</time></trkpt>
<trkpt lat="50.246939" lon="4.556393"><time>2026-05-03T02:35:20Z</time></trkpt>
<trkpt lat="50.247183" lon="4.555455"><time>2026-05-03T02:45:20Z</time></trkpt>
</trkseg></trk>
<trk>
<name>nfnst17</name>
<cmt>s</cmt>
<desc>Saint-Aubin Chemin n°17 </desc>
<link href="https://chemins.be/saintaubin/chemin/17"/><trkseg>
<trkpt lat="50.247183" lon="4.555455"><time>2026-05-03T02:45:20Z</time></trkpt>
<trkpt lat="50.246838" lon="4.551668"><time>2026-05-03T02:55:20Z</time></trkpt>
</trkseg>
</trk>
<trk>
<name>nfnst18</name>
<cmt>v</cmt>
<desc>Saint-Aubin Chemin n°18 </desc>
<link href="https://chemins.be/saintaubin/chemin/18"/><trkseg>
<trkpt lat="50.248628" lon="4.562527"><time>2026-05-03T01:35:20Z</time></trkpt>
<trkpt lat="50.249357" lon="4.561703"><time>2026-05-03T01:45:20Z</time></trkpt>
<trkpt lat="50.250932" lon="4.561079"><time>2026-05-03T01:55:20Z</time></trkpt>
<trkpt lat="50.253880" lon="4.561315"><time>2026-05-03T02:05:20Z</time></trkpt>
<trkpt lat="50.255985" lon="4.561057"><time>2026-05-03T02:15:20Z</time></trkpt>
</trkseg>
</trk>
<trk>
<name>nfnst2</name>
<cmt>s</cmt>
<desc>Saint-Aubin Chemin n°2 Rue des Fermes / Rue de la Goethe</desc>
<link href="https://chemins.be/saintaubin/chemin/2"/><trkseg>
<trkpt lat="50.246092" lon="4.587894"><time>2026-05-03T01:35:20Z</time></trkpt>
<trkpt lat="50.246166" lon="4.586871"><time>2026-05-03T01:45:20Z</time></trkpt>
<trkpt lat="50.245888" lon="4.586435"><time>2026-05-03T01:55:20Z</time></trkpt>
<trkpt lat="50.245368" lon="4.585956"><time>2026-05-03T02:05:20Z</time></trkpt>
</trkseg></trk>
<trk>
<name>nfnst2</name>
<cmt>r</cmt>
<desc>Saint-Aubin Chemin n°2 Rue des Fermes / Rue de la Goethe</desc>
<link href="https://chemins.be/saintaubin/chemin/2"/><trkseg>
<trkpt lat="50.245368" lon="4.585956"><time>2026-05-03T02:05:20Z</time></trkpt>
<trkpt lat="50.245136" lon="4.584819"><time>2026-05-03T02:15:20Z</time></trkpt>
<trkpt lat="50.245689" lon="4.582340"><time>2026-05-03T02:25:20Z</time></trkpt>
<trkpt lat="50.245791" lon="4.580574"><time>2026-05-03T02:35:20Z</time></trkpt>
<trkpt lat="50.246510" lon="4.580479"><time>2026-05-03T02:45:20Z</time></trkpt>
</trkseg></trk>
<trk>
<name>nfnst2</name>
<cmt>s</cmt>
<desc>Saint-Aubin Chemin n°2 Rue des Fermes / Rue de la Goethe</desc>
<link href="https://chemins.be/saintaubin/chemin/2"/><trkseg>
<trkpt lat="50.246510" lon="4.580479"><time>2026-05-03T02:45:20Z</time></trkpt>
<trkpt lat="50.246798" lon="4.580803"><time>2026-05-03T02:55:20Z</time></trkpt>
<trkpt lat="50.246565" lon="4.580423"><time>2026-05-03T03:05:20Z</time></trkpt>
</trkseg></trk>
<trk>
<name>nfnst2</name>
<cmt>r</cmt>
<desc>Saint-Aubin Chemin n°2 Rue des Fermes / Rue de la Goethe</desc>
<link href="https://chemins.be/saintaubin/chemin/2"/><trkseg>
<trkpt lat="50.246565" lon="4.580423"><time>2026-05-03T03:05:20Z</time></trkpt>
<trkpt lat="50.246799" lon="4.579961"><time>2026-05-03T03:15:20Z</time></trkpt>
</trkseg></trk>
<trk>
<name>nfnst2</name>
<cmt>s</cmt>
<desc>Saint-Aubin Chemin n°2 Rue des Fermes / Rue de la Goethe</desc>
<link href="https://chemins.be/saintaubin/chemin/2"/><trkseg>
<trkpt lat="50.246799" lon="4.579961"><time>2026-05-03T03:15:20Z</time></trkpt>
<trkpt lat="50.247160" lon="4.579514"><time>2026-05-03T03:25:20Z</time></trkpt>
</trkseg>
</trk>
<trk>
<name>nfnst20</name>
<cmt>v</cmt>
<desc>Saint-Aubin Chemin n°20 </desc>
<link href="https://chemins.be/saintaubin/chemin/20"/><trkseg>
<trkpt lat="50.255419" lon="4.595257"><time>2026-05-03T01:35:20Z</time></trkpt>
<trkpt lat="50.255188" lon="4.593629"><time>2026-05-03T01:45:20Z</time></trkpt>
<trkpt lat="50.254975" lon="4.592436"><time>2026-05-03T01:55:20Z</time></trkpt>
<trkpt lat="50.254307" lon="4.584650"><time>2026-05-03T02:05:20Z</time></trkpt>
<trkpt lat="50.254650" lon="4.578692"><time>2026-05-03T02:15:20Z</time></trkpt>
<trkpt lat="50.254798" lon="4.576365"><time>2026-05-03T02:25:20Z</time></trkpt>
</trkseg>
</trk>
<trk>
<name>nfnst21</name>
<cmt>v</cmt>
<desc>Saint-Aubin Chemin n°21 </desc>
<link href="https://chemins.be/saintaubin/chemin/21"/><trkseg>
<trkpt lat="50.254993" lon="4.592520"><time>2026-05-03T01:35:20Z</time></trkpt>
<trkpt lat="50.253905" lon="4.592949"><time>2026-05-03T01:45:20Z</time></trkpt>
<trkpt lat="50.253481" lon="4.593116"><time>2026-05-03T01:55:20Z</time></trkpt>
<trkpt lat="50.253159" lon="4.592698"><time>2026-05-03T02:05:20Z</time></trkpt>
<trkpt lat="50.252950" lon="4.592618"><time>2026-05-03T02:15:20Z</time></trkpt>
<trkpt lat="50.252729" lon="4.593161"><time>2026-05-03T02:25:20Z</time></trkpt>
<trkpt lat="50.252905" lon="4.593702"><time>2026-05-03T02:35:20Z</time></trkpt>
<trkpt lat="50.252805" lon="4.594062"><time>2026-05-03T02:45:20Z</time></trkpt>
<trkpt lat="50.252490" lon="4.594359"><time>2026-05-03T02:55:20Z</time></trkpt>
<trkpt lat="50.251899" lon="4.594976"><time>2026-05-03T03:05:20Z</time></trkpt>
<trkpt lat="50.251383" lon="4.595291"><time>2026-05-03T03:15:20Z</time></trkpt>
</trkseg>
</trk>
<trk>
<name>nfnst22</name>
<cmt>v</cmt>
<desc>Saint-Aubin Chemin n°22 </desc>
<link href="https://chemins.be/saintaubin/chemin/22"/><trkseg>
<trkpt lat="50.257140" lon="4.593316"><time>2026-05-03T01:35:20Z</time></trkpt>
<trkpt lat="50.261691" lon="4.592229"><time>2026-05-03T01:45:20Z</time></trkpt>
<trkpt lat="50.262258" lon="4.592246"><time>2026-05-03T01:55:20Z</time></trkpt>
<trkpt lat="50.263245" lon="4.593008"><time>2026-05-03T02:05:20Z</time></trkpt>
<trkpt lat="50.264181" lon="4.592732"><time>2026-05-03T02:15:20Z</time></trkpt>
</trkseg>
</trk>
<trk>
<name>nfnst23</name>
<cmt>v</cmt>
<desc>Saint-Aubin Chemin n°23 </desc>
<link href="https://chemins.be/saintaubin/chemin/23"/><trkseg>
<trkpt lat="50.249315" lon="4.580632"><time>2026-05-03T01:35:20Z</time></trkpt>
<trkpt lat="50.249489" lon="4.579132"><time>2026-05-03T01:45:20Z</time></trkpt>
<trkpt lat="50.249473" lon="4.577744"><time>2026-05-03T01:55:20Z</time></trkpt>
<trkpt lat="50.249529" lon="4.576707"><time>2026-05-03T02:05:20Z</time></trkpt>
<trkpt lat="50.249549" lon="4.575739"><time>2026-05-03T02:15:20Z</time></trkpt>
<trkpt lat="50.249381" lon="4.574126"><time>2026-05-03T02:25:20Z</time></trkpt>
<trkpt lat="50.249274" lon="4.573789"><time>2026-05-03T02:35:20Z</time></trkpt>
</trkseg></trk>
<trk>
<name>nfnst23</name>
<cmt>s</cmt>
<desc>Saint-Aubin Chemin n°23 </desc>
<link href="https://chemins.be/saintaubin/chemin/23"/><trkseg>
<trkpt lat="50.249274" lon="4.573789"><time>2026-05-03T02:35:20Z</time></trkpt>
<trkpt lat="50.248572" lon="4.574052"><time>2026-05-03T02:45:20Z</time></trkpt>
<trkpt lat="50.248266" lon="4.573953"><time>2026-05-03T02:55:20Z</time></trkpt>
<trkpt lat="50.247898" lon="4.573853"><time>2026-05-03T03:05:20Z</time></trkpt>
</trkseg>
</trk>
<trk>
<name>nfnst25</name>
<cmt>r</cmt>
<desc>Saint-Aubin Chemin n°25 Rue Goffin / Rue Fontaine Gilles</desc>
<link href="https://chemins.be/saintaubin/chemin/25"/><trkseg>
<trkpt lat="50.247505" lon="4.577259"><time>2026-05-03T01:35:20Z</time></trkpt>
<trkpt lat="50.247273" lon="4.576318"><time>2026-05-03T01:45:20Z</time></trkpt>
<trkpt lat="50.247607" lon="4.575787"><time>2026-05-03T01:55:20Z</time></trkpt>
<trkpt lat="50.248048" lon="4.575663"><time>2026-05-03T02:05:20Z</time></trkpt>
<trkpt lat="50.248542" lon="4.575637"><time>2026-05-03T02:15:20Z</time></trkpt>
</trkseg>
</trk>
<trk>
<name>nfnst27</name>
<cmt>r</cmt>
<desc>Saint-Aubin Chemin n°27 Rue du Bois-de-Roeulx</desc>
<link href="https://chemins.be/saintaubin/chemin/27"/><trkseg>
<trkpt lat="50.232838" lon="4.589010"><time>2026-05-03T01:35:20Z</time></trkpt>
<trkpt lat="50.232252" lon="4.584788"><time>2026-05-03T01:45:20Z</time></trkpt>
</trkseg></trk>
<trk>
<name>nfnst27</name>
<cmt>s</cmt>
<desc>Saint-Aubin Chemin n°27 Rue du Bois-de-Roeulx</desc>
<link href="https://chemins.be/saintaubin/chemin/27"/><trkseg>
<trkpt lat="50.232252" lon="4.584788"><time>2026-05-03T01:45:20Z</time></trkpt>
<trkpt lat="50.231698" lon="4.583286"><time>2026-05-03T01:55:20Z</time></trkpt>
</trkseg></trk>
<trk>
<name>nfnst27</name>
<cmt>v</cmt>
<desc>Saint-Aubin Chemin n°27 Rue du Bois-de-Roeulx</desc>
<link href="https://chemins.be/saintaubin/chemin/27"/><trkseg>
<trkpt lat="50.231698" lon="4.583286"><time>2026-05-03T01:55:20Z</time></trkpt>
<trkpt lat="50.230574" lon="4.583197"><time>2026-05-03T02:05:20Z</time></trkpt>
<trkpt lat="50.228258" lon="4.581379"><time>2026-05-03T02:15:20Z</time></trkpt>
<trkpt lat="50.226732" lon="4.579900"><time>2026-05-03T02:25:20Z</time></trkpt>
<trkpt lat="50.226409" lon="4.579899"><time>2026-05-03T02:35:20Z</time></trkpt>
<trkpt lat="50.226031" lon="4.579799"><time>2026-05-03T02:45:20Z</time></trkpt>
</trkseg>
</trk>
<trk>
<name>nfnst28</name>
<cmt>r</cmt>
<desc>Saint-Aubin Chemin n°28 Bois de Roeulx</desc>
<link href="https://chemins.be/saintaubin/chemin/28"/><trkseg>
<trkpt lat="50.232235" lon="4.584508"><time>2026-05-03T01:35:20Z</time></trkpt>
<trkpt lat="50.232085" lon="4.583148"><time>2026-05-03T01:45:20Z</time></trkpt>
<trkpt lat="50.232095" lon="4.582223"><time>2026-05-03T01:55:20Z</time></trkpt>
<trkpt lat="50.231980" lon="4.581367"><time>2026-05-03T02:05:20Z</time></trkpt>
<trkpt lat="50.231114" lon="4.578154"><time>2026-05-03T02:15:20Z</time></trkpt>
</trkseg>
</trk>
<trk>
<name>nfnst29</name>
<cmt>v</cmt>
<desc>Saint-Aubin Chemin n°29 </desc>
<link href="https://chemins.be/saintaubin/chemin/29"/><trkseg>
<trkpt lat="50.226995" lon="4.588436"><time>2026-05-03T01:35:20Z</time></trkpt>
<trkpt lat="50.227486" lon="4.590162"><time>2026-05-03T01:45:20Z</time></trkpt>
</trkseg>
</trk>
<trk>
<name>nfnst3</name>
<cmt>s</cmt>
<desc>Saint-Aubin Chemin n°3 </desc>
<link href="https://chemins.be/saintaubin/chemin/3"/><trkseg>
<trkpt lat="50.245474" lon="4.555799"><time>2026-05-03T01:35:20Z</time></trkpt>
<trkpt lat="50.245646" lon="4.555155"><time>2026-05-03T01:45:20Z</time></trkpt>
<trkpt lat="50.245720" lon="4.553795"><time>2026-05-03T01:55:20Z</time></trkpt>
<trkpt lat="50.245856" lon="4.553108"><time>2026-05-03T02:05:20Z</time></trkpt>
<trkpt lat="50.246298" lon="4.552591"><time>2026-05-03T02:15:20Z</time></trkpt>
<trkpt lat="50.246767" lon="4.551640"><time>2026-05-03T02:25:20Z</time></trkpt>
<trkpt lat="50.246993" lon="4.550757"><time>2026-05-03T02:35:20Z</time></trkpt>
<trkpt lat="50.247489" lon="4.549554"><time>2026-05-03T02:45:20Z</time></trkpt>
<trkpt lat="50.247510" lon="4.547801"><time>2026-05-03T02:55:20Z</time></trkpt>
<trkpt lat="50.247439" lon="4.547254"><time>2026-05-03T03:05:20Z</time></trkpt>
<trkpt lat="50.247098" lon="4.546482"><time>2026-05-03T03:15:20Z</time></trkpt>
<trkpt lat="50.247074" lon="4.544799"><time>2026-05-03T03:25:20Z</time></trkpt>
</trkseg>
</trk>
<trk>
<name>nfnst30</name>
<cmt>v</cmt>
<desc>Saint-Aubin Chemin n°30 </desc>
<link href="https://chemins.be/saintaubin/chemin/30"/><trkseg>
<trkpt lat="50.242186" lon="4.585240"><time>2026-05-03T01:35:20Z</time></trkpt>
<trkpt lat="50.242527" lon="4.585690"><time>2026-05-03T01:45:20Z</time></trkpt>
</trkseg></trk>
<trk>
<name>nfnst30</name>
<cmt>s</cmt>
<desc>Saint-Aubin Chemin n°30 </desc>
<link href="https://chemins.be/saintaubin/chemin/30"/><trkseg>
<trkpt lat="50.242527" lon="4.585690"><time>2026-05-03T01:45:20Z</time></trkpt>
<trkpt lat="50.242265" lon="4.586334"><time>2026-05-03T01:55:20Z</time></trkpt>
<trkpt lat="50.242318" lon="4.586741"><time>2026-05-03T02:05:20Z</time></trkpt>
</trkseg>
</trk>
<trk>
<name>nfnst30bis</name>
<cmt>v</cmt>
<desc>Saint-Aubin Chemin n°30bis </desc>
<link href="https://chemins.be/saintaubin/chemin/30bis"/><trkseg>
<trkpt lat="50.220958" lon="4.581024"><time>2026-05-03T01:35:20Z</time></trkpt>
<trkpt lat="50.220766" lon="4.582942"><time>2026-05-03T01:45:20Z</time></trkpt>
</trkseg>
</trk>
<trk>
<name>nfnst31</name>
<cmt>r</cmt>
<desc>Saint-Aubin Chemin n°31 Rue de la Maladrerie / Impasse du Parc</desc>
<link href="https://chemins.be/saintaubin/chemin/31"/><trkseg>
<trkpt lat="50.249972" lon="4.585248"><time>2026-05-03T01:35:20Z</time></trkpt>
<trkpt lat="50.250375" lon="4.585964"><time>2026-05-03T01:45:20Z</time></trkpt>
<trkpt lat="50.250508" lon="4.587087"><time>2026-05-03T01:55:20Z</time></trkpt>
<trkpt lat="50.250533" lon="4.587900"><time>2026-05-03T02:05:20Z</time></trkpt>
<trkpt lat="50.250675" lon="4.588995"><time>2026-05-03T02:15:20Z</time></trkpt>
<trkpt lat="50.250868" lon="4.591730"><time>2026-05-03T02:25:20Z</time></trkpt>
<trkpt lat="50.250849" lon="4.592220"><time>2026-05-03T02:35:20Z</time></trkpt>
</trkseg></trk>
<trk>
<name>nfnst31</name>
<cmt>s</cmt>
<desc>Saint-Aubin Chemin n°31 Rue de la Maladrerie / Impasse du Parc</desc>
<link href="https://chemins.be/saintaubin/chemin/31"/><trkseg>
<trkpt lat="50.250849" lon="4.592220"><time>2026-05-03T02:35:20Z</time></trkpt>
<trkpt lat="50.250835" lon="4.594949"><time>2026-05-03T02:45:20Z</time></trkpt>
</trkseg></trk>
<trk>
<name>nfnst31</name>
<cmt>d</cmt>
<desc>Saint-Aubin Chemin n°31 Rue de la Maladrerie / Impasse du Parc</desc>
<link href="https://chemins.be/saintaubin/chemin/31"/><trkseg>
<trkpt lat="50.250835" lon="4.594949"><time>2026-05-03T02:45:20Z</time></trkpt>
<trkpt lat="50.250912" lon="4.595546"><time>2026-05-03T02:55:20Z</time></trkpt>
</trkseg></trk>
<trk>
<name>nfnst31</name>
<cmt>r</cmt>
<desc>Saint-Aubin Chemin n°31 Rue de la Maladrerie / Impasse du Parc</desc>
<link href="https://chemins.be/saintaubin/chemin/31"/><trkseg>
<trkpt lat="50.250912" lon="4.595546"><time>2026-05-03T02:55:20Z</time></trkpt>
<trkpt lat="50.251020" lon="4.596428"><time>2026-05-03T03:05:20Z</time></trkpt>
<trkpt lat="50.251055" lon="4.597087"><time>2026-05-03T03:15:20Z</time></trkpt>
</trkseg>
</trk>
<trk>
<name>nfnst32</name>
<cmt>s</cmt>
<desc>Saint-Aubin Sentier n°32 </desc>
<link href="https://chemins.be/saintaubin/sentier/32"/><trkseg>
<trkpt lat="50.255419" lon="4.595145"><time>2026-05-03T01:35:20Z</time></trkpt>
<trkpt lat="50.258523" lon="4.589620"><time>2026-05-03T01:45:20Z</time></trkpt>
</trkseg>
</trk>
<trk>
<name>nfnst33</name>
<cmt>s</cmt>
<desc>Saint-Aubin Sentier n°33 Rue Saint-Sang</desc>
<link href="https://chemins.be/saintaubin/sentier/33"/><trkseg>
<trkpt lat="50.256851" lon="4.574677"><time>2026-05-03T01:35:20Z</time></trkpt>
<trkpt lat="50.253945" lon="4.576137"><time>2026-05-03T01:45:20Z</time></trkpt>
<trkpt lat="50.252253" lon="4.576789"><time>2026-05-03T01:55:20Z</time></trkpt>
</trkseg>
</trk>
<trk>
<name>nfnst34</name>
<cmt>d</cmt>
<desc>Saint-Aubin Sentier n°34 </desc>
<link href="https://chemins.be/saintaubin/sentier/34"/><trkseg>
<trkpt lat="50.255568" lon="4.568081"><time>2026-05-03T01:35:20Z</time></trkpt>
<trkpt lat="50.255645" lon="4.570325"><time>2026-05-03T01:45:20Z</time></trkpt>
<trkpt lat="50.255525" lon="4.572077"><time>2026-05-03T01:55:20Z</time></trkpt>
<trkpt lat="50.254871" lon="4.576057"><time>2026-05-03T02:05:20Z</time></trkpt>
</trkseg>
</trk>
<trk>
<name>nfnst35</name>
<cmt>s</cmt>
<desc>Saint-Aubin Sentier n°35 </desc>
<link href="https://chemins.be/saintaubin/sentier/35"/><trkseg>
<trkpt lat="50.256623" lon="4.555212"><time>2026-05-03T01:35:20Z</time></trkpt>
<trkpt lat="50.256188" lon="4.557636"><time>2026-05-03T01:45:20Z</time></trkpt>
<trkpt lat="50.255725" lon="4.560425"><time>2026-05-03T01:55:20Z</time></trkpt>
<trkpt lat="50.255814" lon="4.561042"><time>2026-05-03T02:05:20Z</time></trkpt>
<trkpt lat="50.254893" lon="4.563086"><time>2026-05-03T02:15:20Z</time></trkpt>
<trkpt lat="50.254227" lon="4.563728"><time>2026-05-03T02:25:20Z</time></trkpt>
<trkpt lat="50.253911" lon="4.564652"><time>2026-05-03T02:35:20Z</time></trkpt>
<trkpt lat="50.252530" lon="4.567395"><time>2026-05-03T02:45:20Z</time></trkpt>
<trkpt lat="50.252402" lon="4.569133"><time>2026-05-03T02:55:20Z</time></trkpt>
</trkseg>
</trk>
<trk>
<name>nfnst36</name>
<cmt>v</cmt>
<desc>Saint-Aubin Sentier n°36 </desc>
<link href="https://chemins.be/saintaubin/sentier/36"/><trkseg>
<trkpt lat="50.251153" lon="4.573601"><time>2026-05-03T01:35:20Z</time></trkpt>
<trkpt lat="50.250957" lon="4.572675"><time>2026-05-03T01:45:20Z</time></trkpt>
<trkpt lat="50.252356" lon="4.569708"><time>2026-05-03T01:55:20Z</time></trkpt>
<trkpt lat="50.252410" lon="4.569231"><time>2026-05-03T02:05:20Z</time></trkpt>
<trkpt lat="50.252016" lon="4.568304"><time>2026-05-03T02:15:20Z</time></trkpt>
<trkpt lat="50.251677" lon="4.567027"><time>2026-05-03T02:25:20Z</time></trkpt>
<trkpt lat="50.251543" lon="4.566269"><time>2026-05-03T02:35:20Z</time></trkpt>
<trkpt lat="50.251365" lon="4.565511"><time>2026-05-03T02:45:20Z</time></trkpt>
<trkpt lat="50.251060" lon="4.564823"><time>2026-05-03T02:55:20Z</time></trkpt>
</trkseg>
</trk>
<trk>
<name>nfnst37</name>
<cmt>v</cmt>
<desc>Saint-Aubin Sentier n°37 </desc>
<link href="https://chemins.be/saintaubin/sentier/37"/><trkseg>
<trkpt lat="50.249029" lon="4.559416"><time>2026-05-03T01:35:20Z</time></trkpt>
<trkpt lat="50.248824" lon="4.558154"><time>2026-05-03T01:45:20Z</time></trkpt>
<trkpt lat="50.248817" lon="4.556794"><time>2026-05-03T01:55:20Z</time></trkpt>
</trkseg></trk>
<trk>
<name>nfnst37</name>
<cmt>d</cmt>
<desc>Saint-Aubin Sentier n°37 </desc>
<link href="https://chemins.be/saintaubin/sentier/37"/><trkseg>
<trkpt lat="50.248817" lon="4.556794"><time>2026-05-03T01:55:20Z</time></trkpt>
<trkpt lat="50.247932" lon="4.553860"><time>2026-05-03T02:05:20Z</time></trkpt>
<trkpt lat="50.247558" lon="4.551517"><time>2026-05-03T02:15:20Z</time></trkpt>
<trkpt lat="50.247480" lon="4.549834"><time>2026-05-03T02:25:20Z</time></trkpt>
</trkseg>
</trk>
<trk>
<name>nfnst38</name>
<cmt>q</cmt>
<desc>Saint-Aubin Sentier n°38 </desc>
<link href="https://chemins.be/saintaubin/sentier/38"/><trkseg>
<trkpt lat="50.248003" lon="4.570657"><time>2026-05-03T01:35:20Z</time></trkpt>
<trkpt lat="50.248220" lon="4.569718"><time>2026-05-03T01:45:20Z</time></trkpt>
<trkpt lat="50.248403" lon="4.567742"><time>2026-05-03T01:55:20Z</time></trkpt>
<trkpt lat="50.248720" lon="4.566341"><time>2026-05-03T02:05:20Z</time></trkpt>
<trkpt lat="50.249073" lon="4.564885"><time>2026-05-03T02:15:20Z</time></trkpt>
<trkpt lat="50.249201" lon="4.564142"><time>2026-05-03T02:25:20Z</time></trkpt>
<trkpt lat="50.249220" lon="4.563133"><time>2026-05-03T02:35:20Z</time></trkpt>
<trkpt lat="50.249203" lon="4.562810"><time>2026-05-03T02:45:20Z</time></trkpt>
<trkpt lat="50.249681" lon="4.561508"><time>2026-05-03T02:55:20Z</time></trkpt>
<trkpt lat="50.249664" lon="4.560919"><time>2026-05-03T03:05:20Z</time></trkpt>
<trkpt lat="50.249862" lon="4.560850"><time>2026-05-03T03:15:20Z</time></trkpt>
<trkpt lat="50.250466" lon="4.560109"><time>2026-05-03T03:25:20Z</time></trkpt>
<trkpt lat="50.250692" lon="4.559241"><time>2026-05-03T03:35:20Z</time></trkpt>
<trkpt lat="50.250801" lon="4.558806"><time>2026-05-03T03:45:20Z</time></trkpt>
<trkpt lat="50.251171" lon="4.557532"><time>2026-05-03T03:55:20Z</time></trkpt>
</trkseg>
</trk>
<trk>
<name>nfnst39</name>
<cmt>v</cmt>
<desc>Saint-Aubin Sentier n°39 </desc>
<link href="https://chemins.be/saintaubin/sentier/39"/><trkseg>
<trkpt lat="50.249283" lon="4.573677"><time>2026-05-03T01:35:20Z</time></trkpt>
<trkpt lat="50.248670" lon="4.569300"><time>2026-05-03T01:45:20Z</time></trkpt>
<trkpt lat="50.248765" lon="4.566734"><time>2026-05-03T01:55:20Z</time></trkpt>
<trkpt lat="50.248294" lon="4.563507"><time>2026-05-03T02:05:20Z</time></trkpt>
</trkseg>
</trk>
<trk>
<name>nfnst40</name>
<cmt>d</cmt>
<desc>Saint-Aubin Sentier n°40 </desc>
<link href="https://chemins.be/saintaubin/sentier/40"/><trkseg>
<trkpt lat="50.245409" lon="4.568192"><time>2026-05-03T01:35:20Z</time></trkpt>
<trkpt lat="50.245572" lon="4.567450"><time>2026-05-03T01:45:20Z</time></trkpt>
</trkseg></trk>
<trk>
<name>nfnst40</name>
<cmt>s</cmt>
<desc>Saint-Aubin Sentier n°40 </desc>
<link href="https://chemins.be/saintaubin/sentier/40"/><trkseg>
<trkpt lat="50.245572" lon="4.567450"><time>2026-05-03T01:45:20Z</time></trkpt>
<trkpt lat="50.245690" lon="4.566707"><time>2026-05-03T01:55:20Z</time></trkpt>
<trkpt lat="50.245610" lon="4.566006"><time>2026-05-03T02:05:20Z</time></trkpt>
<trkpt lat="50.245324" lon="4.565150"><time>2026-05-03T02:15:20Z</time></trkpt>
<trkpt lat="50.245353" lon="4.564140"><time>2026-05-03T02:25:20Z</time></trkpt>
</trkseg>
</trk>
<trk>
<name>nfnst41</name>
<cmt>v</cmt>
<desc>Saint-Aubin Sentier n°41 Rue Fontaine Gilles / Rue Saint-Fiacre</desc>
<link href="https://chemins.be/saintaubin/sentier/41"/><trkseg>
<trkpt lat="50.246941" lon="4.575840"><time>2026-05-03T01:35:20Z</time></trkpt>
<trkpt lat="50.246907" lon="4.575223"><time>2026-05-03T01:45:20Z</time></trkpt>
<trkpt lat="50.247087" lon="4.575098"><time>2026-05-03T01:55:20Z</time></trkpt>
<trkpt lat="50.247671" lon="4.574862"><time>2026-05-03T02:05:20Z</time></trkpt>
</trkseg></trk>
<trk>
<name>nfnst41</name>
<cmt>s</cmt>
<desc>Saint-Aubin Sentier n°41 Rue Fontaine Gilles / Rue Saint-Fiacre</desc>
<link href="https://chemins.be/saintaubin/sentier/41"/><trkseg>
<trkpt lat="50.247671" lon="4.574862"><time>2026-05-03T02:05:20Z</time></trkpt>
<trkpt lat="50.247862" lon="4.573979"><time>2026-05-03T02:15:20Z</time></trkpt>
</trkseg>
</trk>
<trk>
<name>nfnst42</name>
<cmt>v</cmt>
<desc>Saint-Aubin Sentier n°42 </desc>
<link href="https://chemins.be/saintaubin/sentier/42"/><trkseg>
<trkpt lat="50.247481" lon="4.575674"><time>2026-05-03T01:35:20Z</time></trkpt>
<trkpt lat="50.247428" lon="4.575197"><time>2026-05-03T01:45:20Z</time></trkpt>
<trkpt lat="50.247545" lon="4.575184"><time>2026-05-03T01:55:20Z</time></trkpt>
<trkpt lat="50.247608" lon="4.574889"><time>2026-05-03T02:05:20Z</time></trkpt>
</trkseg>
</trk>
<trk>
<name>nfnst43</name>
<cmt>r</cmt>
<desc>Saint-Aubin Sentier n°43 Rue de la Gare</desc>
<link href="https://chemins.be/saintaubin/sentier/43"/><trkseg>
<trkpt lat="50.247174" lon="4.576402"><time>2026-05-03T01:35:20Z</time></trkpt>
<trkpt lat="50.247013" lon="4.576317"><time>2026-05-03T01:45:20Z</time></trkpt>
</trkseg></trk>
<trk>
<name>nfnst43</name>
<cmt>v</cmt>
<desc>Saint-Aubin Sentier n°43 Rue de la Gare</desc>
<link href="https://chemins.be/saintaubin/sentier/43"/><trkseg>
<trkpt lat="50.247013" lon="4.576317"><time>2026-05-03T01:45:20Z</time></trkpt>
<trkpt lat="50.246779" lon="4.576400"><time>2026-05-03T01:55:20Z</time></trkpt>
<trkpt lat="50.246679" lon="4.576568"><time>2026-05-03T02:05:20Z</time></trkpt>
<trkpt lat="50.246544" lon="4.576623"><time>2026-05-03T02:15:20Z</time></trkpt>
<trkpt lat="50.246167" lon="4.576636"><time>2026-05-03T02:25:20Z</time></trkpt>
<trkpt lat="50.245970" lon="4.576256"><time>2026-05-03T02:35:20Z</time></trkpt>
</trkseg>
</trk>
<trk>
<name>nfnst44</name>
<cmt>r</cmt>
<desc>Saint-Aubin Sentier n°44 Rue de la Gare</desc>
<link href="https://chemins.be/saintaubin/sentier/44"/><trkseg>
<trkpt lat="50.246990" lon="4.578742"><time>2026-05-03T01:35:20Z</time></trkpt>
<trkpt lat="50.246758" lon="4.578110"><time>2026-05-03T01:45:20Z</time></trkpt>
<trkpt lat="50.246651" lon="4.577409"><time>2026-05-03T01:55:20Z</time></trkpt>
<trkpt lat="50.246553" lon="4.576876"><time>2026-05-03T02:05:20Z</time></trkpt>
</trkseg>
</trk>
<trk>
<name>nfnst45</name>
<cmt>v</cmt>
<desc>Saint-Aubin Sentier n°45 </desc>
<link href="https://chemins.be/saintaubin/sentier/45"/><trkseg>
<trkpt lat="50.246576" lon="4.579063"><time>2026-05-03T01:35:20Z</time></trkpt>
<trkpt lat="50.246279" lon="4.579006"><time>2026-05-03T01:45:20Z</time></trkpt>
<trkpt lat="50.246072" lon="4.579341"><time>2026-05-03T01:55:20Z</time></trkpt>
</trkseg>
</trk>
<trk>
<name>nfnst46</name>
<cmt>v</cmt>
<desc>Saint-Aubin Sentier n°46 </desc>
<link href="https://chemins.be/saintaubin/sentier/46"/><trkseg>
<trkpt lat="50.246081" lon="4.579538"><time>2026-05-03T01:35:20Z</time></trkpt>
<trkpt lat="50.246125" lon="4.579608"><time>2026-05-03T01:45:20Z</time></trkpt>
<trkpt lat="50.246259" lon="4.580422"><time>2026-05-03T01:55:20Z</time></trkpt>
</trkseg>
</trk>
<trk>
<name>nfnst47</name>
<cmt>b</cmt>
<desc>Saint-Aubin Sentier n°47 </desc>
<link href="https://chemins.be/saintaubin/sentier/47"/><trkseg>
<trkpt lat="50.247778" lon="4.580484"><time>2026-05-03T01:35:20Z</time></trkpt>
<trkpt lat="50.247733" lon="4.580526"><time>2026-05-03T01:45:20Z</time></trkpt>
<trkpt lat="50.247706" lon="4.580484"><time>2026-05-03T01:55:20Z</time></trkpt>
<trkpt lat="50.247544" lon="4.580764"><time>2026-05-03T02:05:20Z</time></trkpt>
<trkpt lat="50.247067" lon="4.580804"><time>2026-05-03T02:15:20Z</time></trkpt>
<trkpt lat="50.246824" lon="4.580887"><time>2026-05-03T02:25:20Z</time></trkpt>
</trkseg>
</trk>
<trk>
<name>nfnst48</name>
<cmt>v</cmt>
<desc>Saint-Aubin Sentier n°48 Rue de Hurtebise</desc>
<link href="https://chemins.be/saintaubin/sentier/48"/><trkseg>
<trkpt lat="50.248765" lon="4.581386"><time>2026-05-03T01:35:20Z</time></trkpt>
<trkpt lat="50.248702" lon="4.581484"><time>2026-05-03T01:45:20Z</time></trkpt>
</trkseg></trk>
<trk>
<name>nfnst48</name>
<cmt>s</cmt>
<desc>Saint-Aubin Sentier n°48 Rue de Hurtebise</desc>
<link href="https://chemins.be/saintaubin/sentier/48"/><trkseg>
<trkpt lat="50.248702" lon="4.581484"><time>2026-05-03T01:45:20Z</time></trkpt>
<trkpt lat="50.248612" lon="4.581526"><time>2026-05-03T01:55:20Z</time></trkpt>
<trkpt lat="50.248639" lon="4.581736"><time>2026-05-03T02:05:20Z</time></trkpt>
<trkpt lat="50.248513" lon="4.581876"><time>2026-05-03T02:15:20Z</time></trkpt>
</trkseg>
</trk>
<trk>
<name>nfnst49</name>
<cmt>r</cmt>
<desc>Saint-Aubin Sentier n°49 Rue Sainte-Brigide</desc>
<link href="https://chemins.be/saintaubin/sentier/49"/><trkseg>
<trkpt lat="50.245694" lon="4.574867"><time>2026-05-03T01:35:20Z</time></trkpt>
<trkpt lat="50.245459" lon="4.575287"><time>2026-05-03T01:45:20Z</time></trkpt>
<trkpt lat="50.244256" lon="4.574398"><time>2026-05-03T01:55:20Z</time></trkpt>
</trkseg></trk>
<trk>
<name>nfnst49</name>
<cmt>v</cmt>
<desc>Saint-Aubin Sentier n°49 Rue Sainte-Brigide</desc>
<link href="https://chemins.be/saintaubin/sentier/49"/><trkseg>
<trkpt lat="50.244256" lon="4.574398"><time>2026-05-03T01:55:20Z</time></trkpt>
<trkpt lat="50.243070" lon="4.573818"><time>2026-05-03T02:05:20Z</time></trkpt>
<trkpt lat="50.240608" lon="4.573012"><time>2026-05-03T02:15:20Z</time></trkpt>
<trkpt lat="50.240292" lon="4.573066"><time>2026-05-03T02:25:20Z</time></trkpt>
</trkseg>
</trk>
<trk>
<name>nfnst5</name>
<cmt>r</cmt>
<desc>Saint-Aubin Chemin n°5 Rue du Bois-de-Roeulx</desc>
<link href="https://chemins.be/saintaubin/chemin/5"/><trkseg>
<trkpt lat="50.245641" lon="4.581358"><time>2026-05-03T01:35:20Z</time></trkpt>
<trkpt lat="50.243932" lon="4.582184"><time>2026-05-03T01:45:20Z</time></trkpt>
<trkpt lat="50.241877" lon="4.582084"><time>2026-05-03T01:55:20Z</time></trkpt>
<trkpt lat="50.240502" lon="4.582260"><time>2026-05-03T02:05:20Z</time></trkpt>
<trkpt lat="50.238344" lon="4.582391"><time>2026-05-03T02:15:20Z</time></trkpt>
<trkpt lat="50.237030" lon="4.582932"><time>2026-05-03T02:25:20Z</time></trkpt>
<trkpt lat="50.235428" lon="4.584018"><time>2026-05-03T02:35:20Z</time></trkpt>
<trkpt lat="50.234438" lon="4.584139"><time>2026-05-03T02:45:20Z</time></trkpt>
<trkpt lat="50.232442" lon="4.584509"><time>2026-05-03T02:55:20Z</time></trkpt>
</trkseg></trk>
<trk>
<name>nfnst5</name>
<cmt>v</cmt>
<desc>Saint-Aubin Chemin n°5 Rue du Bois-de-Roeulx</desc>
<link href="https://chemins.be/saintaubin/chemin/5"/><trkseg>
<trkpt lat="50.232442" lon="4.584509"><time>2026-05-03T02:55:20Z</time></trkpt>
<trkpt lat="50.231452" lon="4.585037"><time>2026-05-03T03:05:20Z</time></trkpt>
<trkpt lat="50.228826" lon="4.585558"><time>2026-05-03T03:15:20Z</time></trkpt>
<trkpt lat="50.228393" lon="4.585892"><time>2026-05-03T03:25:20Z</time></trkpt>
<trkpt lat="50.227004" lon="4.588338"><time>2026-05-03T03:35:20Z</time></trkpt>
<trkpt lat="50.224569" lon="4.587500"><time>2026-05-03T03:45:20Z</time></trkpt>
</trkseg>
</trk>
<trk>
<name>nfnst50</name>
<cmt>d</cmt>
<desc>Saint-Aubin Sentier n°50 </desc>
<link href="https://chemins.be/saintaubin/sentier/50"/><trkseg>
<trkpt lat="50.238714" lon="4.590958"><time>2026-05-03T01:35:20Z</time></trkpt>
<trkpt lat="50.237512" lon="4.589284"><time>2026-05-03T01:45:20Z</time></trkpt>
<trkpt lat="50.235978" lon="4.587847"><time>2026-05-03T01:55:20Z</time></trkpt>
<trkpt lat="50.234375" lon="4.584321"><time>2026-05-03T02:05:20Z</time></trkpt>
<trkpt lat="50.233998" lon="4.584222"><time>2026-05-03T02:15:20Z</time></trkpt>
<trkpt lat="50.233027" lon="4.584203"><time>2026-05-03T02:25:20Z</time></trkpt>
<trkpt lat="50.232147" lon="4.583681"><time>2026-05-03T02:35:20Z</time></trkpt>
</trkseg></trk>
<trk>
<name>nfnst50</name>
<cmt>s</cmt>
<desc>Saint-Aubin Sentier n°50 </desc>
<link href="https://chemins.be/saintaubin/sentier/50"/><trkseg>
<trkpt lat="50.232147" lon="4.583681"><time>2026-05-03T02:35:20Z</time></trkpt>
<trkpt lat="50.231734" lon="4.583356"><time>2026-05-03T02:45:20Z</time></trkpt>
</trkseg>
</trk>
<trk>
<name>nfnst51</name>
<cmt>s</cmt>
<desc>Saint-Aubin Sentier n°51 </desc>
<link href="https://chemins.be/saintaubin/sentier/51"/><trkseg>
<trkpt lat="50.234249" lon="4.584363"><time>2026-05-03T01:35:20Z</time></trkpt>
<trkpt lat="50.233338" lon="4.586041"><time>2026-05-03T01:45:20Z</time></trkpt>
<trkpt lat="50.232572" lon="4.586948"><time>2026-05-03T01:55:20Z</time></trkpt>
<trkpt lat="50.231394" lon="4.587321"><time>2026-05-03T02:05:20Z</time></trkpt>
<trkpt lat="50.229781" lon="4.588954"><time>2026-05-03T02:15:20Z</time></trkpt>
</trkseg>
</trk>
<trk>
<name>nfnst52</name>
<cmt>d</cmt>
<desc>Saint-Aubin Sentier n°52 </desc>
<link href="https://chemins.be/saintaubin/sentier/52"/><trkseg>
<trkpt lat="50.241792" lon="4.547934"><time>2026-05-03T01:35:20Z</time></trkpt>
<trkpt lat="50.242704" lon="4.545330"><time>2026-05-03T01:45:20Z</time></trkpt>
</trkseg>
</trk>
<trk>
<name>nfnst53</name>
<cmt>v</cmt>
<desc>Saint-Aubin Sentier n°53 Ancien chemin de Walcourt / Rue Croix Jacquet</desc>
<link href="https://chemins.be/saintaubin/sentier/53"/><trkseg>
<trkpt lat="50.249776" lon="4.584083"><time>2026-05-03T01:35:20Z</time></trkpt>
<trkpt lat="50.249778" lon="4.583298"><time>2026-05-03T01:45:20Z</time></trkpt>
<trkpt lat="50.249448" lon="4.581642"><time>2026-05-03T01:55:20Z</time></trkpt>
</trkseg>
</trk>
<trk>
<name>nfnst55</name>
<cmt>r</cmt>
<desc>Saint-Aubin Chemin n°55 Rue de Noupré</desc>
<link href="https://chemins.be/saintaubin/chemin/55"/><trkseg>
<trkpt lat="50.254001" lon="4.598433"><time>2026-05-03T01:35:20Z</time></trkpt>
<trkpt lat="50.254487" lon="4.598478"><time>2026-05-03T01:45:20Z</time></trkpt>
</trkseg>
</trk>
<trk>
<name>nfnst58</name>
<cmt>v</cmt>
<desc>Saint-Aubin Chemin n°58 </desc>
<link href="https://chemins.be/saintaubin/chemin/58"/><trkseg>
<trkpt lat="50.232757" lon="4.589010"><time>2026-05-03T01:35:20Z</time></trkpt>
<trkpt lat="50.232298" lon="4.589148"><time>2026-05-03T01:45:20Z</time></trkpt>
<trkpt lat="50.231408" lon="4.589129"><time>2026-05-03T01:55:20Z</time></trkpt>
<trkpt lat="50.229826" lon="4.589066"><time>2026-05-03T02:05:20Z</time></trkpt>
<trkpt lat="50.229520" lon="4.589037"><time>2026-05-03T02:15:20Z</time></trkpt>
<trkpt lat="50.227468" lon="4.590162"><time>2026-05-03T02:25:20Z</time></trkpt>
<trkpt lat="50.225992" lon="4.591206"><time>2026-05-03T02:35:20Z</time></trkpt>
<trkpt lat="50.225209" lon="4.591553"><time>2026-05-03T02:45:20Z</time></trkpt>
</trkseg>
</trk>
<trk>
<name>nfnst6</name>
<cmt>r</cmt>
<desc>Saint-Aubin Chemin n°6 </desc>
<link href="https://chemins.be/saintaubin/chemin/6"/><trkseg>
<trkpt lat="50.242947" lon="4.582243"><time>2026-05-03T01:35:20Z</time></trkpt>
<trkpt lat="50.242177" lon="4.585296"><time>2026-05-03T01:45:20Z</time></trkpt>
<trkpt lat="50.240744" lon="4.587014"><time>2026-05-03T01:55:20Z</time></trkpt>
<trkpt lat="50.239886" lon="4.589365"><time>2026-05-03T02:05:20Z</time></trkpt>
<trkpt lat="50.238911" lon="4.591127"><time>2026-05-03T02:15:20Z</time></trkpt>
</trkseg>
</trk>
<trk>
<name>nfnst8</name>
<cmt>v</cmt>
<desc>Saint-Aubin Chemin n°8 </desc>
<link href="https://chemins.be/saintaubin/chemin/8"/><trkseg>
<trkpt lat="50.239899" lon="4.572613"><time>2026-05-03T01:35:20Z</time></trkpt>
<trkpt lat="50.239846" lon="4.572080"><time>2026-05-03T01:45:20Z</time></trkpt>
<trkpt lat="50.237552" lon="4.567711"><time>2026-05-03T01:55:20Z</time></trkpt>
</trkseg>
</trk>
<trk>
<name>nfnst9</name>
<cmt>r</cmt>
<desc>Saint-Aubin Chemin n°9 Rue des Battis</desc>
<link href="https://chemins.be/saintaubin/chemin/9"/><trkseg>
<trkpt lat="50.245638" lon="4.580699"><time>2026-05-03T01:35:20Z</time></trkpt>
<trkpt lat="50.244999" lon="4.581111"><time>2026-05-03T01:45:20Z</time></trkpt>
<trkpt lat="50.243974" lon="4.581295"><time>2026-05-03T01:55:20Z</time></trkpt>
</trkseg></trk>
<trk>
<name>nfnst9</name>
<cmt>v</cmt>
<desc>Saint-Aubin Chemin n°9 Rue des Battis</desc>
<link href="https://chemins.be/saintaubin/chemin/9"/><trkseg>
<trkpt lat="50.243974" lon="4.581295"><time>2026-05-03T01:55:20Z</time></trkpt>
<trkpt lat="50.243659" lon="4.581265"><time>2026-05-03T02:05:20Z</time></trkpt>
<trkpt lat="50.242781" lon="4.579859"><time>2026-05-03T02:15:20Z</time></trkpt>
<trkpt lat="50.240374" lon="4.573204"><time>2026-05-03T02:25:20Z</time></trkpt>
</trkseg>
</trk>
<trk>
<name>nfnsti1</name>
<cmt>v</cmt>
<desc>Saint-Aubin Sentier n°i1 </desc>
<link href="https://chemins.be/saintaubin/sentier/i1"/><trkseg>
<trkpt lat="50.246907" lon="4.575181"><time>2026-05-03T01:35:20Z</time></trkpt>
<trkpt lat="50.246844" lon="4.575082"><time>2026-05-03T01:45:20Z</time></trkpt>
<trkpt lat="50.246691" lon="4.575152"><time>2026-05-03T01:55:20Z</time></trkpt>
</trkseg>
</trk>
<trk>
<name>nfnsti10</name>
<cmt>s</cmt>
<desc>Saint-Aubin Chemin n°i10 </desc>
<link href="https://chemins.be/saintaubin/chemin/i10"/><trkseg>
<trkpt lat="50.266168" lon="4.578336"><time>2026-05-03T01:35:20Z</time></trkpt>
<trkpt lat="50.266508" lon="4.579081"><time>2026-05-03T01:45:20Z</time></trkpt>
<trkpt lat="50.267127" lon="4.584428"><time>2026-05-03T01:55:20Z</time></trkpt>
<trkpt lat="50.267392" lon="4.587108"><time>2026-05-03T02:05:20Z</time></trkpt>
</trkseg>
</trk>
<trk>
<name>nfnsti11</name>
<cmt>q</cmt>
<desc>Saint-Aubin Chemin n°i11 </desc>
<link href="https://chemins.be/saintaubin/chemin/i11"/><trkseg>
<trkpt lat="50.264824" lon="4.580504"><time>2026-05-03T01:35:20Z</time></trkpt>
<trkpt lat="50.264895" lon="4.580912"><time>2026-05-03T01:45:20Z</time></trkpt>
<trkpt lat="50.265002" lon="4.581333"><time>2026-05-03T01:55:20Z</time></trkpt>
<trkpt lat="50.265055" lon="4.582020"><time>2026-05-03T02:05:20Z</time></trkpt>
<trkpt lat="50.265560" lon="4.586286"><time>2026-05-03T02:15:20Z</time></trkpt>
</trkseg>
</trk>
<trk>
<name>nfnsti12</name>
<cmt>v</cmt>
<desc>Saint-Aubin Chemin n°i12 </desc>
<link href="https://chemins.be/saintaubin/chemin/i12"/><trkseg>
<trkpt lat="50.246209" lon="4.578318"><time>2026-05-03T01:35:20Z</time></trkpt>
<trkpt lat="50.246235" lon="4.578613"><time>2026-05-03T01:45:20Z</time></trkpt>
<trkpt lat="50.246280" lon="4.578809"><time>2026-05-03T01:55:20Z</time></trkpt>
<trkpt lat="50.246288" lon="4.579006"><time>2026-05-03T02:05:20Z</time></trkpt>
</trkseg>
</trk>
<trk>
<name>nfnsti13</name>
<cmt>v</cmt>
<desc>Saint-Aubin Chemin n°i13 </desc>
<link href="https://chemins.be/saintaubin/chemin/i13"/><trkseg>
<trkpt lat="50.247119" lon="4.544134"><time>2026-05-03T01:35:20Z</time></trkpt>
<trkpt lat="50.248351" lon="4.543347"><time>2026-05-03T01:45:20Z</time></trkpt>
<trkpt lat="50.253583" lon="4.540615"><time>2026-05-03T01:55:20Z</time></trkpt>
<trkpt lat="50.255736" lon="4.541502"><time>2026-05-03T02:05:20Z</time></trkpt>
<trkpt lat="50.258205" lon="4.543376"><time>2026-05-03T02:15:20Z</time></trkpt>
<trkpt lat="50.260242" lon="4.544806"><time>2026-05-03T02:25:20Z</time></trkpt>
</trkseg>
</trk>
<trk>
<name>nfnsti14</name>
<cmt>v</cmt>
<desc>Saint-Aubin Chemin n°i14 </desc>
<link href="https://chemins.be/saintaubin/chemin/i14"/><trkseg>
<trkpt lat="50.260237" lon="4.544427"><time>2026-05-03T01:35:20Z</time></trkpt>
<trkpt lat="50.261458" lon="4.545049"><time>2026-05-03T01:45:20Z</time></trkpt>
<trkpt lat="50.262426" lon="4.547170"><time>2026-05-03T01:55:20Z</time></trkpt>
<trkpt lat="50.263743" lon="4.550387"><time>2026-05-03T02:05:20Z</time></trkpt>
<trkpt lat="50.263668" lon="4.552238"><time>2026-05-03T02:15:20Z</time></trkpt>
</trkseg>
</trk>
<trk>
<name>nfnsti15</name>
<cmt>v</cmt>
<desc>Saint-Aubin Chemin n°i15 </desc>
<link href="https://chemins.be/saintaubin/chemin/i15"/><trkseg>
<trkpt lat="50.262489" lon="4.547142"><time>2026-05-03T01:35:20Z</time></trkpt>
<trkpt lat="50.263866" lon="4.546082"><time>2026-05-03T01:45:20Z</time></trkpt>
</trkseg>
</trk>
<trk>
<name>nfnsti16</name>
<cmt>v</cmt>
<desc>Saint-Aubin Chemin n°i16 </desc>
<link href="https://chemins.be/saintaubin/chemin/i16"/><trkseg>
<trkpt lat="50.250394" lon="4.549141"><time>2026-05-03T01:35:20Z</time></trkpt>
<trkpt lat="50.252288" lon="4.547124"><time>2026-05-03T01:45:20Z</time></trkpt>
<trkpt lat="50.253431" lon="4.546995"><time>2026-05-03T01:55:20Z</time></trkpt>
<trkpt lat="50.254529" lon="4.548984"><time>2026-05-03T02:05:20Z</time></trkpt>
<trkpt lat="50.255187" lon="4.549541"><time>2026-05-03T02:15:20Z</time></trkpt>
</trkseg>
</trk>
<trk>
<name>nfnsti17</name>
<cmt>v</cmt>
<desc>Saint-Aubin Chemin n°i17 </desc>
<link href="https://chemins.be/saintaubin/chemin/i17"/><trkseg>
<trkpt lat="50.258284" lon="4.543447"><time>2026-05-03T01:35:20Z</time></trkpt>
<trkpt lat="50.260132" lon="4.558840"><time>2026-05-03T01:45:20Z</time></trkpt>
</trkseg>
</trk>
<trk>
<name>nfnsti2</name>
<cmt>v</cmt>
<desc>Saint-Aubin Sentier n°i2 </desc>
<link href="https://chemins.be/saintaubin/sentier/i2"/><trkseg>
<trkpt lat="50.248093" lon="4.580191"><time>2026-05-03T01:35:20Z</time></trkpt>
<trkpt lat="50.247986" lon="4.579686"><time>2026-05-03T01:45:20Z</time></trkpt>
<trkpt lat="50.248553" lon="4.579675"><time>2026-05-03T01:55:20Z</time></trkpt>
<trkpt lat="50.248562" lon="4.579619"><time>2026-05-03T02:05:20Z</time></trkpt>
<trkpt lat="50.248985" lon="4.579564"><time>2026-05-03T02:15:20Z</time></trkpt>
</trkseg>
</trk>
<trk>
<name>nfnsti3</name>
<cmt>r</cmt>
<desc>Saint-Aubin Chemin n°i3 Rue A. Boulvin</desc>
<link href="https://chemins.be/saintaubin/chemin/i3"/><trkseg>
<trkpt lat="50.248039" lon="4.575719"><time>2026-05-03T01:35:20Z</time></trkpt>
<trkpt lat="50.248146" lon="4.576196"><time>2026-05-03T01:45:20Z</time></trkpt>
<trkpt lat="50.248225" lon="4.576855"><time>2026-05-03T01:55:20Z</time></trkpt>
</trkseg>
</trk>
<trk>
<name>nfnsti4</name>
<cmt>s</cmt>
<desc>Saint-Aubin Sentier n°i4 </desc>
<link href="https://chemins.be/saintaubin/sentier/i4"/><trkseg>
<trkpt lat="50.264354" lon="4.577080"><time>2026-05-03T01:35:20Z</time></trkpt>
<trkpt lat="50.265833" lon="4.574436"><time>2026-05-03T01:45:20Z</time></trkpt>
</trkseg>
</trk>
<trk>
<name>nfnsti5</name>
<cmt>v</cmt>
<desc>Saint-Aubin Chemin n°i5 Chemin n°i5</desc>
<link href="https://chemins.be/saintaubin/chemin/i5"/><trkseg>
<trkpt lat="50.256216" lon="4.533152"><time>2026-05-03T01:35:20Z</time></trkpt>
<trkpt lat="50.255844" lon="4.535632"><time>2026-05-03T01:45:20Z</time></trkpt>
<trkpt lat="50.255737" lon="4.541536"><time>2026-05-03T01:55:20Z</time></trkpt>
</trkseg></trk>
<trk>
<name>nfnsti5</name>
<cmt>b</cmt>
<desc>Saint-Aubin Chemin n°i5 Chemin n°i5</desc>
<link href="https://chemins.be/saintaubin/chemin/i5"/><trkseg>
<trkpt lat="50.255737" lon="4.541536"><time>2026-05-03T01:55:20Z</time></trkpt>
<trkpt lat="50.256197" lon="4.546404"><time>2026-05-03T02:05:20Z</time></trkpt>
<trkpt lat="50.257176" lon="4.552900"><time>2026-05-03T02:15:20Z</time></trkpt>
</trkseg>
</trk>
<trk>
<name>nfnsti6</name>
<cmt>v</cmt>
<desc>Saint-Aubin Chemin n°i6 Rue Saint-Antoine</desc>
<link href="https://chemins.be/saintaubin/chemin/i6"/><trkseg>
<trkpt lat="50.246751" lon="4.550056"><time>2026-05-03T01:35:20Z</time></trkpt>
<trkpt lat="50.247525" lon="4.549694"><time>2026-05-03T01:45:20Z</time></trkpt>
</trkseg>
</trk>
<trk>
<name>nfnsti7</name>
<cmt>v</cmt>
<desc>Saint-Aubin Chemin n°i7 </desc>
<link href="https://chemins.be/saintaubin/chemin/i7"/><trkseg>
<trkpt lat="50.232067" lon="4.583120"><time>2026-05-03T01:35:20Z</time></trkpt>
<trkpt lat="50.231689" lon="4.583244"><time>2026-05-03T01:45:20Z</time></trkpt>
</trkseg>
</trk>
<trk>
<name>nfnsti8</name>
<cmt>v</cmt>
<desc>Saint-Aubin Chemin n°i8 Rue de la Vallée des Prés</desc>
<link href="https://chemins.be/saintaubin/chemin/i8"/><trkseg>
<trkpt lat="50.245638" lon="4.570955"><time>2026-05-03T01:35:20Z</time></trkpt>
<trkpt lat="50.245047" lon="4.569523"><time>2026-05-03T01:45:20Z</time></trkpt>
<trkpt lat="50.244047" lon="4.568155"><time>2026-05-03T01:55:20Z</time></trkpt>
<trkpt lat="50.243550" lon="4.566089"><time>2026-05-03T02:05:20Z</time></trkpt>
<trkpt lat="50.243249" lon="4.563711"><time>2026-05-03T02:15:20Z</time></trkpt>
<trkpt lat="50.242347" lon="4.560385"><time>2026-05-03T02:25:20Z</time></trkpt>
<trkpt lat="50.242414" lon="4.558198"><time>2026-05-03T02:35:20Z</time></trkpt>
</trkseg>
</trk>
<trk>
<name>nfnsti9</name>
<cmt>v</cmt>
<desc>Saint-Aubin Chemin n°i9 </desc>
<link href="https://chemins.be/saintaubin/chemin/i9"/><trkseg>
<trkpt lat="50.246833" lon="4.576353"><time>2026-05-03T01:35:20Z</time></trkpt>
<trkpt lat="50.246668" lon="4.575172"><time>2026-05-03T01:45:20Z</time></trkpt>
<trkpt lat="50.246582" lon="4.574518"><time>2026-05-03T01:55:20Z</time></trkpt>
<trkpt lat="50.246411" lon="4.572898"><time>2026-05-03T02:05:20Z</time></trkpt>
<trkpt lat="50.246400" lon="4.572721"><time>2026-05-03T02:15:20Z</time></trkpt>
<trkpt lat="50.246349" lon="4.571873"><time>2026-05-03T02:25:20Z</time></trkpt>
<trkpt lat="50.246373" lon="4.571822"><time>2026-05-03T02:35:20Z</time></trkpt>
</trkseg>
</trk>
<trk>
<name>nfnstL135</name>
<cmt>v</cmt>
<desc>Saint-Aubin Chemin n°L135 Tronçon de la ligne L135 à Saint-Aubin</desc>
<link href="https://chemins.be/saintaubin/chemin/L135"/><trkseg>
<trkpt lat="50.259156" lon="4.533288"><time>2026-05-03T01:35:20Z</time></trkpt>
<trkpt lat="50.259158" lon="4.538547"><time>2026-05-03T01:45:20Z</time></trkpt>
<trkpt lat="50.259316" lon="4.541100"><time>2026-05-03T01:55:20Z</time></trkpt>
<trkpt lat="50.262543" lon="4.552711"><time>2026-05-03T02:05:20Z</time></trkpt>
</trkseg>
</trk>
<trk>
<name>nfnstL135b</name>
<cmt>s</cmt>
<desc>Saint-Aubin Chemin n°L135 partie b </desc>
<link href="https://chemins.be/saintaubin/chemin/L135b"/><trkseg>
<trkpt lat="50.269993" lon="4.582624"><time>2026-05-03T01:35:20Z</time></trkpt>
<trkpt lat="50.270625" lon="4.588380"><time>2026-05-03T01:45:20Z</time></trkpt>
</trkseg>
</trk>
<trk>
<name>nfnstL136</name>
<cmt>v</cmt>
<desc>Saint-Aubin Chemin n°L136 Tronçon de la ligne L136 à Saint-Aubin / Ligne 136 / Rue du Fourneau</desc>
<link href="https://chemins.be/saintaubin/chemin/L136"/><trkseg>
<trkpt lat="50.241706" lon="4.556224"><time>2026-05-03T01:35:20Z</time></trkpt>
<trkpt lat="50.242960" lon="4.559434"><time>2026-05-03T01:45:20Z</time></trkpt>
<trkpt lat="50.244168" lon="4.562733"><time>2026-05-03T01:55:20Z</time></trkpt>
<trkpt lat="50.244786" lon="4.564292"><time>2026-05-03T02:05:20Z</time></trkpt>
<trkpt lat="50.245902" lon="4.568713"><time>2026-05-03T02:15:20Z</time></trkpt>
<trkpt lat="50.246095" lon="4.571462"><time>2026-05-03T02:25:20Z</time></trkpt>
<trkpt lat="50.246277" lon="4.573362"><time>2026-05-03T02:35:20Z</time></trkpt>
<trkpt lat="50.246501" lon="4.575768"><time>2026-05-03T02:45:20Z</time></trkpt>
<trkpt lat="50.246571" lon="4.576918"><time>2026-05-03T02:55:20Z</time></trkpt>
<trkpt lat="50.246631" lon="4.578222"><time>2026-05-03T03:05:20Z</time></trkpt>
<trkpt lat="50.246792" lon="4.579036"><time>2026-05-03T03:15:20Z</time></trkpt>
<trkpt lat="50.247184" lon="4.581043"><time>2026-05-03T03:25:20Z</time></trkpt>
<trkpt lat="50.248796" lon="4.584050"><time>2026-05-03T03:35:20Z</time></trkpt>
<trkpt lat="50.250435" lon="4.587731"><time>2026-05-03T03:45:20Z</time></trkpt>
<trkpt lat="50.251984" lon="4.590725"><time>2026-05-03T03:55:20Z</time></trkpt>
<trkpt lat="50.253471" lon="4.593817"><time>2026-05-03T04:05:20Z</time></trkpt>
<trkpt lat="50.254876" lon="4.596867"><time>2026-05-03T04:15:20Z</time></trkpt>
<trkpt lat="50.255852" lon="4.599045"><time>2026-05-03T04:25:20Z</time></trkpt>
<trkpt lat="50.256154" lon="4.601150"><time>2026-05-03T04:35:20Z</time></trkpt>
</trkseg>
</trk>
</gpx>